Time;durP1;ratioP1;P1;durP2;ratioP2;P2;SDS_P1;SDS_P2;PMS_P1;PMS_P2;Temp;Humidity;BMP_temperature;BMP_pressure;BME280_temperature;BME280_humidity;BME280_pressure;Samples;Min_cycle;Max_cycle;Signal;HPM_P1;HPM_P2
2022/01/07 00:01:37;;;;;;;18.10;10.50;;;;;;;1.98;81.00;101142.39;107380;1249;60119;-76
2022/01/07 00:04:07;;;;;;;13.40;7.70;;;;;;;2.05;80.76;101146.30;107327;1249;74450;-78
2022/01/07 00:06:36;;;;;;;20.90;12.30;;;;;;;2.12;80.37;101152.61;107269;1249;70949;-78
2022/01/07 00:09:05;;;;;;;18.00;10.40;;;;;;;2.13;80.17;101167.53;107289;1249;69036;-78
2022/01/07 00:11:34;;;;;;;17.00;10.10;;;;;;;2.14;80.25;101172.86;107094;1250;72090;-74
2022/01/07 00:14:03;;;;;;;14.40;9.50;;;;;;;2.21;80.46;101175.55;107334;1249;60900;-79
2022/01/07 00:16:32;;;;;;;14.40;9.30;;;;;;;2.23;79.73;101187.17;107227;1251;59777;-79
2022/01/07 00:19:02;;;;;;;12.40;7.70;;;;;;;2.16;79.23;101190.15;107300;1249;71936;-78
2022/01/07 00:21:31;;;;;;;10.40;6.40;;;;;;;2.11;79.02;101202.69;107313;1249;71605;-78
2022/01/07 00:24:00;;;;;;;10.30;6.20;;;;;;;2.04;78.59;101209.92;107262;1249;70810;-78
2022/01/07 00:26:29;;;;;;;10.60;5.90;;;;;;;1.93;78.60;101212.63;107290;1249;73853;-80
2022/01/07 00:28:57;;;;;;;9.20;4.80;;;;;;;1.82;78.18;101219.28;107275;1249;61298;-80
2022/01/07 00:31:27;;;;;;;9.40;5.30;;;;;;;1.74;77.79;101223.83;107178;1249;63289;-76
2022/01/07 00:33:56;;;;;;;8.10;5.50;;;;;;;1.66;78.00;101229.72;107365;1249;75394;-80
2022/01/07 00:36:25;;;;;;;6.50;4.80;;;;;;;1.56;78.46;101221.89;107410;1249;70508;-81
2022/01/07 00:38:54;;;;;;;10.70;5.60;;;;;;;1.42;78.94;101232.23;107280;1248;70516;-81
2022/01/07 00:41:23;;;;;;;13.00;6.70;;;;;;;1.35;78.85;101229.15;107307;1249;74795;-77
2022/01/07 00:43:52;;;;;;;9.70;5.70;;;;;;;1.31;78.74;101236.30;107203;1249;61678;-74
2022/01/07 00:46:21;;;;;;;7.00;4.30;;;;;;;1.20;78.48;101256.14;107327;1249;61936;-78
2022/01/07 00:48:50;;;;;;;7.80;5.00;;;;;;;1.16;78.50;101253.82;107233;1249;75979;-78
2022/01/07 00:51:19;;;;;;;8.80;5.20;;;;;;;1.10;78.64;101258.42;107295;1249;72889;-79
2022/01/07 00:53:48;;;;;;;8.00;4.20;;;;;;;0.94;78.93;101266.70;107296;1249;69806;-81
2022/01/07 00:56:17;;;;;;;8.50;5.10;;;;;;;0.92;78.05;101269.00;107254;1249;73435;-73
2022/01/07 00:58:46;;;;;;;7.50;4.30;;;;;;;0.82;77.82;101263.91;107302;1249;59998;-77
2022/01/07 01:01:15;;;;;;;8.10;5.10;;;;;;;0.72;78.14;101261.21;107310;1249;62691;-79
2022/01/07 01:03:44;;;;;;;7.00;4.50;;;;;;;0.56;78.65;101250.96;106764;1249;645560;-78
2022/01/07 01:06:13;;;;;;;9.00;5.80;;;;;;;0.54;78.72;101258.36;107354;1249;69905;-80
2022/01/07 01:08:42;;;;;;;6.60;4.60;;;;;;;0.53;78.26;101258.90;107422;1249;67921;-77
2022/01/07 01:11:11;;;;;;;5.20;3.70;;;;;;;0.51;78.14;101269.41;107243;1251;72952;-82
2022/01/07 01:13:41;;;;;;;6.00;3.40;;;;;;;0.50;78.02;101275.95;107052;1252;60015;-75
2022/01/07 01:16:10;;;;;;;6.80;3.80;;;;;;;0.45;78.08;101281.02;107253;1249;59741;-81
2022/01/07 01:18:39;;;;;;;7.20;4.10;;;;;;;0.40;77.91;101291.77;107220;1251;73404;-78
2022/01/07 01:21:09;;;;;;;8.60;4.70;;;;;;;0.28;78.55;101297.82;107199;1249;72510;-79
2022/01/07 01:23:40;;;;;;;8.00;4.30;;;;;;;0.30;78.18;101303.44;107269;1249;70479;-77
2022/01/07 01:26:09;;;;;;;6.10;4.20;;;;;;;0.31;77.81;101311.81;107322;1249;71638;-80
2022/01/07 01:28:39;;;;;;;6.40;4.20;;;;;;;0.29;77.78;101313.23;107262;1250;59062;-81
2022/01/07 01:31:08;;;;;;;5.70;3.00;;;;;;;0.26;77.40;101322.36;107121;1249;60903;-81
2022/01/07 01:33:37;;;;;;;6.30;4.20;;;;;;;0.21;77.35;101326.75;107182;1249;71664;-77
2022/01/07 01:36:08;;;;;;;6.30;3.20;;;;;;;0.21;77.31;101328.12;107026;1249;70069;-81
2022/01/07 01:38:39;;;;;;;8.10;4.10;;;;;;;0.29;77.87;101334.64;107129;1249;70973;-82
2022/01/07 01:41:10;;;;;;;5.30;3.80;;;;;;;0.33;78.10;101340.89;107067;1251;74018;-82
2022/01/07 01:43:40;;;;;;;5.60;3.40;;;;;;;0.36;77.80;101348.89;107051;1251;59773;-79
2022/01/07 01:46:09;;;;;;;8.50;4.40;;;;;;;0.32;76.93;101339.88;107178;1248;59725;-81
2022/01/07 01:48:38;;;;;;;7.20;4.30;;;;;;;0.34;76.82;101347.05;107162;1250;72939;-80
2022/01/07 01:51:07;;;;;;;6.40;4.00;;;;;;;0.30;76.88;101356.73;107386;1249;71204;-81
2022/01/07 01:53:37;;;;;;;5.70;3.80;;;;;;;0.34;76.49;101359.04;107363;1251;67946;-79
2022/01/07 01:56:06;;;;;;;6.60;3.50;;;;;;;0.28;76.37;101366.20;107416;1249;73876;-79
2022/01/07 01:58:35;;;;;;;7.70;4.30;;;;;;;0.31;76.40;101369.89;107350;1251;60267;-81
2022/01/07 02:01:04;;;;;;;8.10;4.50;;;;;;;0.31;76.71;101368.19;107309;1249;60217;-76
2022/01/07 02:03:34;;;;;;;5.70;3.50;;;;;;;0.25;76.52;101367.79;107234;1249;73677;-77
2022/01/07 02:06:03;;;;;;;6.30;3.30;;;;;;;0.27;76.80;101367.73;107210;1249;71864;-73
2022/01/07 02:08:32;;;;;;;5.70;3.40;;;;;;;0.30;76.75;101368.55;107238;1249;69465;-76
2022/01/07 02:11:01;;;;;;;7.50;4.00;;;;;;;0.35;76.17;101377.02;107137;1251;72846;-77
2022/01/07 02:13:30;;;;;;;5.50;4.00;;;;;;;0.32;76.19;101382.89;107157;1250;59622;-75
2022/01/07 02:15:59;;;;;;;5.50;3.60;;;;;;;0.28;76.04;101379.38;107064;1249;59633;-78
2022/01/07 02:18:28;;;;;;;4.70;3.20;;;;;;;0.24;76.11;101379.45;107098;1249;73604;-77
2022/01/07 02:20:57;;;;;;;6.00;3.40;;;;;;;0.22;76.17;101380.86;107091;1249;73011;-82
2022/01/07 02:23:26;;;;;;;6.50;3.00;;;;;;;0.22;76.03;101382.39;107081;1249;67753;-77
2022/01/07 02:25:57;;;;;;;7.80;4.10;;;;;;;0.25;75.74;101384.23;107024;1249;73295;-79
2022/01/07 02:28:27;;;;;;;7.70;4.10;;;;;;;0.28;75.66;101386.05;107132;1249;62939;-80
2022/01/07 02:30:56;;;;;;;5.40;3.50;;;;;;;0.31;74.99;101394.39;107096;1249;61717;-79
2022/01/07 02:33:25;;;;;;;7.60;3.60;;;;;;;0.27;74.19;101397.73;107190;1249;73271;-77
2022/01/07 02:35:54;;;;;;;9.60;4.90;;;;;;;0.22;74.32;101398.16;107158;1249;70721;-78
2022/01/07 02:38:23;;;;;;;8.00;3.90;;;;;;;0.23;74.39;101404.14;107153;1251;68793;-80
2022/01/07 02:40:52;;;;;;;7.10;4.10;;;;;;;0.22;74.36;101414.09;107268;1249;71854;-83
2022/01/07 02:43:21;;;;;;;6.80;4.20;;;;;;;0.24;74.53;101415.09;107353;1249;59717;-83
2022/01/07 02:45:50;;;;;;;8.50;4.60;;;;;;;0.25;74.01;101416.08;107230;1249;60070;-81
2022/01/07 02:48:20;;;;;;;10.60;4.50;;;;;;;0.25;73.45;101416.95;107266;1249;75437;-84
2022/01/07 02:50:49;;;;;;;7.80;3.70;;;;;;;0.29;73.73;101419.46;107278;1249;72019;-75
2022/01/07 02:53:18;;;;;;;8.20;4.50;;;;;;;0.31;72.97;101421.82;107128;1250;70995;-82
2022/01/07 02:55:47;;;;;;;6.90;3.90;;;;;;;0.27;73.12;101428.73;107305;1249;73532;-81
2022/01/07 02:58:17;;;;;;;7.50;4.70;;;;;;;0.23;72.02;101434.80;107353;1249;59547;-81
2022/01/07 03:00:46;;;;;;;11.40;5.00;;;;;;;0.21;72.37;101436.05;107183;1249;62583;-81
2022/01/07 03:03:15;;;;;;;6.90;4.30;;;;;;;0.28;72.70;101445.02;107288;1249;74507;-79
2022/01/07 03:05:44;;;;;;;7.50;4.20;;;;;;;0.29;71.98;101449.79;107250;1249;73590;-82
2022/01/07 03:08:13;;;;;;;8.10;4.00;;;;;;;0.33;71.53;101456.73;107284;1249;70368;-77
2022/01/07 03:10:42;;;;;;;8.70;4.00;;;;;;;0.28;71.59;101456.48;107132;1252;73690;-81
2022/01/07 03:13:11;;;;;;;7.80;3.20;;;;;;;0.26;71.59;101451.53;107341;1249;62160;-81
2022/01/07 03:15:40;;;;;;;6.90;4.20;;;;;;;0.24;70.91;101450.39;107313;1249;61658;-83
2022/01/07 03:18:09;;;;;;;5.90;2.60;;;;;;;0.23;71.31;101449.88;107300;1249;73476;-81
2022/01/07 03:20:38;;;;;;;7.00;3.40;;;;;;;0.20;71.38;101458.84;107365;1249;70342;-83
2022/01/07 03:23:11;;;;;;;7.30;4.00;;;;;;;0.21;70.90;101465.67;107247;1251;68734;-85
2022/01/07 03:25:44;;;;;;;5.50;3.80;;;;;;;0.21;69.86;101468.41;107298;1249;72018;-86
2022/01/07 03:28:13;;;;;;;5.20;3.60;;;;;;;0.22;69.31;101474.05;107313;1249;59641;-79
2022/01/07 03:30:42;;;;;;;7.70;4.60;;;;;;;0.22;69.28;101478.33;107312;1249;59628;-81
2022/01/07 03:33:11;;;;;;;5.30;3.50;;;;;;;0.17;69.12;101477.74;107220;1250;74400;-81
2022/01/07 03:35:41;;;;;;;6.50;4.20;;;;;;;0.18;68.84;101480.29;107056;1250;72945;-76
2022/01/07 03:38:10;;;;;;;5.30;3.00;;;;;;;0.17;68.89;101485.27;107307;1249;68362;-79
2022/01/07 03:40:39;;;;;;;8.00;4.00;;;;;;;0.18;68.85;101489.02;107257;1249;72956;-81
2022/01/07 03:43:09;;;;;;;5.50;3.20;;;;;;;0.17;69.44;101498.30;107297;1249;63129;-80
2022/01/07 03:45:39;;;;;;;6.20;3.80;;;;;;;0.22;69.16;101499.23;107291;1250;61955;-82
2022/01/07 03:48:08;;;;;;;6.40;3.60;;;;;;;0.19;68.91;101502.37;107229;1251;72989;-79
2022/01/07 03:50:37;;;;;;;7.10;4.10;;;;;;;0.19;68.88;101507.86;107357;1249;72179;-80
2022/01/07 03:53:07;;;;;;;7.50;4.10;;;;;;;0.16;68.88;101509.27;107293;1249;70358;-82
2022/01/07 03:55:36;;;;;;;6.00;3.60;;;;;;;0.16;68.56;101523.66;107062;1249;73395;-80
2022/01/07 03:58:06;;;;;;;5.80;3.70;;;;;;;0.18;68.69;101528.94;107183;1251;62560;-80
2022/01/07 04:00:39;;;;;;;7.00;4.00;;;;;;;0.16;68.63;101527.60;107328;1249;61867;-80
2022/01/07 04:03:16;;;;;;;4.40;2.50;;;;;;;0.19;68.89;101533.71;107304;1249;72111;-83
2022/01/07 04:05:46;;;;;;;6.40;2.90;;;;;;;0.22;68.54;101536.58;107183;1249;71418;-80
2022/01/07 04:08:15;;;;;;;5.20;3.50;;;;;;;0.21;68.11;101541.91;107150;1250;69265;-81
2022/01/07 04:10:44;;;;;;;6.70;4.00;;;;;;;0.17;68.47;101539.75;107204;1251;72392;-81
2022/01/07 04:13:13;;;;;;;5.10;3.20;;;;;;;0.13;68.10;101543.08;107240;1249;60551;-79
2022/01/07 04:15:42;;;;;;;4.50;2.60;;;;;;;0.14;68.86;101548.02;107243;1249;62175;-81
2022/01/07 04:18:11;;;;;;;6.10;3.50;;;;;;;0.19;68.29;101552.23;107246;1249;72882;-83
2022/01/07 04:20:40;;;;;;;2.60;1.80;;;;;;;0.16;68.40;101557.07;107238;1249;70364;-83
2022/01/07 04:23:10;;;;;;;3.40;2.30;;;;;;;0.16;68.25;101561.17;107296;1249;68968;-82
2022/01/07 04:25:43;;;;;;;5.50;3.70;;;;;;;0.12;68.41;101562.10;107304;1249;75113;-82
2022/01/07 04:28:12;;;;;;;8.00;3.80;;;;;;;0.14;68.35;101562.58;107231;1250;60205;-80
2022/01/07 04:30:44;;;;;;;6.10;3.90;;;;;;;0.11;68.03;101565.72;107209;1249;58952;-80
2022/01/07 04:33:21;;;;;;;6.00;3.80;;;;;;;0.09;67.95;101567.80;107125;1249;74662;-79
2022/01/07 04:35:50;;;;;;;7.00;3.90;;;;;;;0.07;67.63;101568.69;107096;1249;72269;-83
2022/01/07 04:38:19;;;;;;;4.80;3.80;;;;;;;-0.02;68.13;101568.30;108459;1249;70801;-82
2022/01/07 04:40:49;;;;;;;5.90;3.70;;;;;;;0.07;68.52;101576.05;107355;1248;75442;-84
2022/01/07 04:43:17;;;;;;;6.20;3.80;;;;;;;0.11;68.09;101579.59;107329;1252;61913;-84
2022/01/07 04:45:47;;;;;;;5.10;3.30;;;;;;;0.15;67.05;101582.27;107330;1249;61017;-79
2022/01/07 04:48:16;;;;;;;5.40;3.80;;;;;;;0.16;66.30;101588.08;107093;1250;75188;-76
2022/01/07 04:50:45;;;;;;;5.30;3.90;;;;;;;0.14;66.27;101592.91;107049;1249;73785;-78
2022/01/07 04:53:14;;;;;;;7.00;3.30;;;;;;;0.13;66.40;101597.02;107332;1249;70370;-83
2022/01/07 04:55:44;;;;;;;6.70;3.40;;;;;;;0.16;66.64;101599.56;107234;1251;73150;-80
2022/01/07 04:58:14;;;;;;;4.30;2.50;;;;;;;0.19;65.70;101600.20;107299;1249;59722;-80
2022/01/07 05:00:44;;;;;;;3.10;2.00;;;;;;;0.12;65.37;101610.75;107224;1252;58766;-80
2022/01/07 05:03:13;;;;;;;6.20;3.60;;;;;;;0.09;65.06;101612.69;107494;1249;75481;-84
2022/01/07 05:05:47;;;;;;;5.80;3.50;;;;;;;0.12;64.76;101613.84;107223;1251;70015;-80
2022/01/07 05:08:18;;;;;;;8.00;3.60;;;;;;;0.11;64.06;101623.45;107944;1249;68815;-80
2022/01/07 05:10:47;;;;;;;7.00;3.10;;;;;;;0.04;64.29;101616.52;108866;1248;73108;-86
2022/01/07 05:13:16;;;;;;;4.80;2.90;;;;;;;0.08;64.59;101615.42;107363;1251;60094;-81
2022/01/07 05:15:45;;;;;;;5.50;2.90;;;;;;;0.11;64.37;101623.10;107098;1251;59569;-81
2022/01/07 05:18:15;;;;;;;5.50;3.20;;;;;;;0.05;62.82;101630.89;107112;1249;74843;-82
2022/01/07 05:20:44;;;;;;;4.60;2.40;;;;;;;-0.02;61.70;101639.73;107090;1249;74133;-81
2022/01/07 05:23:13;;;;;;;6.70;3.30;;;;;;;-0.04;61.70;101636.84;106785;1250;71314;-83
2022/01/07 05:25:42;;;;;;;6.20;3.30;;;;;;;-0.07;61.30;101633.80;107051;1251;71920;-83
2022/01/07 05:28:11;;;;;;;5.30;2.80;;;;;;;-0.14;62.22;101641.09;107028;1249;60564;-76
2022/01/07 05:30:40;;;;;;;4.30;2.40;;;;;;;-0.15;62.56;101636.65;107166;1249;60765;-87
2022/01/07 05:33:09;;;;;;;4.80;2.80;;;;;;;-0.16;62.92;101645.05;107015;1250;74062;-77
2022/01/07 05:35:37;;;;;;;5.20;2.60;;;;;;;-0.21;62.49;101644.77;107063;1249;70709;-77
2022/01/07 05:38:06;;;;;;;6.60;2.60;;;;;;;-0.28;62.61;101650.17;106956;1250;69726;-78
2022/01/07 05:40:35;;;;;;;4.10;2.70;;;;;;;-0.39;62.96;101655.27;107036;1249;72191;-76
2022/01/07 05:43:04;;;;;;;7.00;3.40;;;;;;;-0.51;62.92;101659.88;107062;1250;59517;-76
2022/01/07 05:45:33;;;;;;;7.60;3.00;;;;;;;-0.59;63.33;101668.66;107040;1249;62231;-77
2022/01/07 05:48:03;;;;;;;3.40;2.30;;;;;;;-0.69;63.61;101669.98;107157;1249;71880;-76
2022/01/07 05:50:32;;;;;;;5.10;3.20;;;;;;;-0.78;63.71;101678.63;107178;1249;69568;-77
2022/01/07 05:53:01;;;;;;;4.20;2.80;;;;;;;-0.86;63.99;101678.54;107096;1249;68681;-79
2022/01/07 05:55:30;;;;;;;4.80;3.20;;;;;;;-0.92;64.18;101680.48;107214;1248;71014;-76
2022/01/07 05:57:59;;;;;;;7.10;2.70;;;;;;;-0.93;64.78;101685.61;107205;1249;58987;-75
2022/01/07 06:00:28;;;;;;;7.30;3.50;;;;;;;-0.98;64.94;101690.45;107221;1249;59653;-77
2022/01/07 06:02:57;;;;;;;5.20;3.10;;;;;;;-1.05;65.29;101687.61;107179;1249;72486;-77
2022/01/07 06:05:27;;;;;;;5.80;3.10;;;;;;;-1.11;65.60;101693.46;107107;1249;70453;-78
2022/01/07 06:07:56;;;;;;;7.60;3.70;;;;;;;-1.17;65.97;101701.20;107218;1249;71453;-77
2022/01/07 06:10:25;;;;;;;4.10;2.20;;;;;;;-1.24;66.18;101710.16;107169;1249;73583;-78
2022/01/07 06:12:53;;;;;;;5.40;3.60;;;;;;;-1.28;66.49;101712.92;107260;1248;61854;-77
2022/01/07 06:15:22;;;;;;;7.20;3.70;;;;;;;-1.32;66.93;101718.77;107269;1249;60495;-78
2022/01/07 06:17:52;;;;;;;5.40;3.30;;;;;;;-1.32;67.14;101720.97;107370;1249;72327;-75
2022/01/07 06:20:21;;;;;;;7.10;3.80;;;;;;;-1.35;67.35;101720.66;107455;1249;69599;-79
2022/01/07 06:22:50;;;;;;;20.80;4.70;;;;;;;-1.34;67.18;101723.05;107488;1249;67012;-80
2022/01/07 06:25:19;;;;;;;6.10;3.50;;;;;;;-1.32;66.96;101734.30;107364;1249;72867;-76
2022/01/07 06:27:48;;;;;;;8.10;3.80;;;;;;;-1.34;67.12;101739.27;107309;1249;59538;-80
2022/01/07 06:30:17;;;;;;;6.20;3.70;;;;;;;-1.39;67.15;101747.68;107331;1249;59508;-78
2022/01/07 06:32:46;;;;;;;6.50;3.30;;;;;;;-1.42;67.41;101751.98;107254;1249;72817;-78
2022/01/07 06:35:16;;;;;;;6.80;4.60;;;;;;;-1.42;67.72;101761.73;107250;1249;71453;-79
2022/01/07 06:37:45;;;;;;;7.20;4.20;;;;;;;-1.43;67.88;101758.30;107256;1249;69266;-79
2022/01/07 06:40:15;;;;;;;6.20;3.60;;;;;;;-1.42;67.71;101754.71;107249;1249;73933;-80
2022/01/07 06:42:44;;;;;;;6.60;3.50;;;;;;;-1.40;67.57;101757.43;106948;1252;61052;-78
2022/01/07 06:45:13;;;;;;;5.50;3.60;;;;;;;-1.38;67.76;101766.81;107125;1249;60314;-78
2022/01/07 06:47:42;;;;;;;7.40;4.10;;;;;;;-1.37;67.42;101762.37;107320;1249;73241;-79
2022/01/07 06:50:12;;;;;;;7.10;3.40;;;;;;;-1.36;67.44;101764.94;107250;1249;70828;-77
2022/01/07 06:52:41;;;;;;;8.00;4.30;;;;;;;-1.34;67.79;101762.18;107401;1249;70139;-78
2022/01/07 06:55:10;;;;;;;8.70;4.00;;;;;;;-1.32;67.93;101768.83;107179;1248;73228;-75
2022/01/07 06:57:39;;;;;;;10.80;4.40;;;;;;;-1.30;67.57;101776.86;107315;1249;59876;-75
2022/01/07 07:00:09;;;;;;;7.50;4.50;;;;;;;-1.31;67.75;101777.37;107163;1249;61889;-78
2022/01/07 07:02:38;;;;;;;8.80;4.40;;;;;;;-1.33;67.53;101778.75;107222;1249;74185;-77
2022/01/07 07:05:08;;;;;;;6.60;3.80;;;;;;;-1.31;67.65;101780.97;107227;1248;70337;-76
2022/01/07 07:07:37;;;;;;;7.60;4.30;;;;;;;-1.27;67.62;101785.73;107194;1249;69551;-76
2022/01/07 07:10:06;;;;;;;15.30;4.80;;;;;;;-1.24;67.49;101791.86;107172;1249;74612;-77
2022/01/07 07:12:35;;;;;;;6.60;3.30;;;;;;;-1.19;67.76;101787.89;107553;1249;60051;-78
2022/01/07 07:15:04;;;;;;;7.20;4.00;;;;;;;-1.13;67.53;101788.19;107456;1249;58941;-78
2022/01/07 07:17:34;;;;;;;10.70;4.50;;;;;;;-1.10;67.67;101789.03;107322;1249;71742;-78
2022/01/07 07:20:03;;;;;;;8.60;5.50;;;;;;;-1.11;68.52;101789.71;107224;1249;71459;-78
2022/01/07 07:22:32;;;;;;;6.10;3.50;;;;;;;-1.17;68.54;101797.11;107345;1249;68566;-76
2022/01/07 07:25:01;;;;;;;8.60;4.10;;;;;;;-1.12;68.66;101796.73;107251;1249;71978;-78
2022/01/07 07:27:30;;;;;;;7.10;4.20;;;;;;;-1.12;69.45;101806.31;107169;1248;59811;-75
2022/01/07 07:29:59;;;;;;;8.00;4.40;;;;;;;-1.06;68.77;101802.50;107205;1249;59682;-79
2022/01/07 07:32:30;;;;;;;10.50;4.80;;;;;;;-1.00;68.36;101801.77;107249;1252;74776;-77
2022/01/07 07:35:12;;;;;;;6.80;4.00;;;;;;;-0.93;68.19;101800.87;107260;1249;72583;-75
2022/01/07 07:37:42;;;;;;;10.10;5.10;;;;;;;-0.89;67.43;101799.66;107175;1249;71082;-77
2022/01/07 07:40:11;;;;;;;6.90;4.00;;;;;;;-0.89;66.92;101792.29;107434;1249;75405;-76
2022/01/07 07:42:41;;;;;;;6.80;4.10;;;;;;;-0.79;66.96;101805.73;107460;1248;59707;-75
2022/01/07 07:45:17;;;;;;;9.50;4.30;;;;;;;-0.71;66.49;101812.86;107546;1249;59751;-77
2022/01/07 07:47:46;;;;;;;8.40;4.50;;;;;;;-0.67;65.99;101819.84;107165;1249;72521;-77
2022/01/07 07:50:15;;;;;;;11.00;4.30;;;;;;;-0.62;66.62;101824.76;107375;1250;71310;-77
2022/01/07 07:52:44;;;;;;;9.80;4.90;;;;;;;-0.53;66.12;101828.62;107384;1249;69195;-76
2022/01/07 07:55:13;;;;;;;6.30;3.70;;;;;;;-0.45;66.23;101828.02;107322;1249;74309;-76
2022/01/07 07:57:42;;;;;;;12.70;5.40;;;;;;;-0.37;64.54;101828.45;107336;1249;60960;-77
2022/01/07 08:00:12;;;;;;;6.60;3.60;;;;;;;-0.36;64.24;101836.15;107385;1249;62357;-79
2022/01/07 08:02:41;;;;;;;10.40;4.30;;;;;;;-0.35;64.33;101838.36;107244;1249;74759;-78
2022/01/07 08:05:10;;;;;;;12.00;4.20;;;;;;;-0.32;63.98;101844.00;107333;1250;72769;-76
2022/01/07 08:07:39;;;;;;;11.00;5.00;;;;;;;-0.28;64.40;101847.55;107529;1249;68343;-78
2022/01/07 08:10:09;;;;;;;9.20;4.60;;;;;;;-0.22;64.70;101846.98;107307;1249;71415;-78
2022/01/07 08:18:13;;;;;;;6.60;3.90;;;;;;;-0.11;63.42;101859.89;107387;1249;72528;-75
2022/01/07 08:20:42;;;;;;;8.10;4.10;;;;;;;-0.07;63.95;101860.70;107317;1249;71069;-80
2022/01/07 08:23:12;;;;;;;6.80;3.40;;;;;;;0.00;63.15;101865.27;107389;1249;68471;-78
2022/01/07 08:25:42;;;;;;;6.50;3.50;;;;;;;0.05;61.52;101861.44;107304;1249;71284;-78
2022/01/07 08:28:12;;;;;;;7.90;4.20;;;;;;;0.06;61.84;101863.48;107328;1250;60461;-77
2022/01/07 08:31:01;;;;;;;7.00;4.30;;;;;;;0.07;61.44;101863.83;107327;1249;60482;-76
2022/01/07 08:36:19;;;;;;;5.40;3.60;;;;;;;0.15;60.64;101866.98;107124;1250;70369;-80
2022/01/07 08:38:50;;;;;;;6.40;4.10;;;;;;;0.21;60.39;101865.89;107164;1249;68760;-77
2022/01/07 08:41:22;;;;;;;6.30;3.70;;;;;;;0.23;60.14;101868.95;107155;1249;73921;-76
2022/01/07 08:43:51;;;;;;;6.50;3.90;;;;;;;0.25;60.38;101868.75;107180;1249;59250;-75
2022/01/07 08:46:21;;;;;;;8.10;4.00;;;;;;;0.34;60.63;101872.43;107243;1249;60493;-77
2022/01/07 08:48:50;;;;;;;8.30;3.70;;;;;;;0.42;60.26;101870.12;107258;1249;72351;-78
2022/01/07 08:51:19;;;;;;;7.70;4.30;;;;;;;0.50;59.91;101872.23;107129;1249;71346;-76
2022/01/07 08:53:53;;;;;;;10.90;4.60;;;;;;;0.53;59.62;101869.97;107248;1249;70841;-75
2022/01/07 08:56:23;;;;;;;8.60;4.40;;;;;;;0.57;59.84;101870.80;107079;1250;75418;-76
2022/01/07 08:58:57;;;;;;;7.30;3.80;;;;;;;0.63;59.68;101861.11;107050;1251;59713;-77
2022/01/07 09:01:28;;;;;;;6.80;3.60;;;;;;;0.67;59.35;101860.89;107285;1249;60846;-76
2022/01/07 09:03:57;;;;;;;7.10;3.90;;;;;;;0.59;58.50;101859.63;107217;1249;75461;-77
2022/01/07 09:06:26;;;;;;;5.60;2.70;;;;;;;0.54;58.75;101864.82;107232;1249;70964;-78
2022/01/07 09:08:55;;;;;;;7.60;3.90;;;;;;;0.52;58.59;101860.06;107088;1250;68759;-75
2022/01/07 09:11:24;;;;;;;8.90;4.30;;;;;;;0.53;59.83;101856.44;107090;1251;72386;-81
2022/01/07 09:13:53;;;;;;;5.90;3.90;;;;;;;0.67;59.46;101852.83;107219;1249;60547;-78
2022/01/07 09:16:23;;;;;;;6.20;3.60;;;;;;;0.77;59.27;101854.75;107085;1250;61109;-78
2022/01/07 09:18:52;;;;;;;8.20;3.20;;;;;;;0.89;58.49;101858.36;107177;1249;73657;-77
2022/01/07 09:21:21;;;;;;;7.90;3.90;;;;;;;0.92;57.97;101855.74;107315;1249;70881;-76
2022/01/07 09:23:50;;;;;;;6.60;4.30;;;;;;;0.98;57.94;101853.08;107376;1249;69068;-77
2022/01/07 09:26:19;;;;;;;6.50;3.20;;;;;;;1.10;58.00;101858.73;107213;1250;71287;-81
2022/01/07 09:28:48;;;;;;;7.40;3.70;;;;;;;1.22;56.80;101857.01;107320;1248;59640;-76
2022/01/07 09:31:17;;;;;;;9.00;4.30;;;;;;;1.29;57.00;101850.23;107432;1249;60858;-76
2022/01/07 09:33:46;;;;;;;5.70;3.50;;;;;;;1.35;57.79;101844.98;107305;1249;72574;-81
2022/01/07 09:36:35;;;;;;;7.40;3.90;;;;;;;1.45;57.16;101844.98;107267;1249;70871;-76
2022/01/07 09:39:04;;;;;;;7.40;3.50;;;;;;;1.47;57.14;101845.45;107403;1249;69766;-72
2022/01/07 09:41:33;;;;;;;6.90;3.70;;;;;;;1.42;56.75;101844.52;107521;1248;74920;-75
2022/01/07 09:44:02;;;;;;;7.00;4.00;;;;;;;1.38;56.56;101840.46;107543;1249;60420;-77
2022/01/07 09:46:31;;;;;;;4.80;3.00;;;;;;;1.23;56.22;101840.19;107429;1249;61378;-75
2022/01/07 09:49:00;;;;;;;6.40;4.10;;;;;;;1.07;55.53;101836.48;107410;1249;72375;-77
2022/01/07 09:51:29;;;;;;;5.50;3.50;;;;;;;1.00;56.33;101835.89;107504;1249;70375;-76
2022/01/07 09:54:04;;;;;;;6.00;3.90;;;;;;;0.98;56.59;101835.59;107393;1249;68732;-78
2022/01/07 09:56:33;;;;;;;7.20;4.10;;;;;;;1.01;56.64;101839.30;107170;1251;73968;-79
2022/01/07 09:59:05;;;;;;;7.40;4.10;;;;;;;1.01;56.28;101829.55;107168;1250;60301;-76
2022/01/07 10:01:58;;;;;;;8.20;3.60;;;;;;;1.05;56.51;101823.98;107452;1249;60406;-73
2022/01/07 10:04:33;;;;;;;8.40;4.30;;;;;;;1.11;56.68;101830.59;107376;1249;73239;-79
2022/01/07 10:07:09;;;;;;;5.10;2.70;;;;;;;1.13;55.90;101833.14;107428;1249;72205;-79
2022/01/07 10:09:40;;;;;;;5.70;3.70;;;;;;;1.13;56.15;101826.61;107351;1249;68341;-78
2022/01/07 10:12:10;;;;;;;8.20;3.40;;;;;;;1.16;56.69;101819.02;107479;1249;73521;-79
2022/01/07 10:14:39;;;;;;;8.10;4.90;;;;;;;1.21;56.58;101820.31;107325;1249;61914;-79
2022/01/07 10:17:08;;;;;;;8.40;4.50;;;;;;;1.21;56.12;101819.97;107400;1249;60072;-73
2022/01/07 10:19:40;;;;;;;5.80;4.20;;;;;;;1.25;56.62;101825.73;107448;1249;74413;-77
2022/01/07 10:22:12;;;;;;;;;;;;;;;1.26;56.54;101821.77;107450;1248;72227;-77
2022/01/07 10:25:02;;;;;;;7.40;4.40;;;;;;;1.29;56.36;101822.24;107253;1249;70022;-79
2022/01/07 10:27:37;;;;;;;5.80;3.30;;;;;;;1.33;57.49;101822.85;107110;1249;73626;-78
2022/01/07 10:30:15;;;;;;;6.50;4.40;;;;;;;1.41;57.03;101826.85;107303;1249;59318;-77
2022/01/07 10:32:44;;;;;;;6.70;4.20;;;;;;;1.29;57.01;101825.86;107340;1249;61339;-76
2022/01/07 10:35:19;;;;;;;7.50;3.80;;;;;;;1.54;56.80;101820.63;107117;1249;74600;-77
2022/01/07 10:38:01;;;;;;;6.50;3.90;;;;;;;1.64;56.21;101823.03;107296;1249;69948;-74
2022/01/07 10:40:37;;;;;;;8.50;4.00;;;;;;;1.85;56.86;101822.46;107214;1249;69545;-78
2022/01/07 10:43:24;;;;;;;7.50;4.40;;;;;;;2.16;56.98;101820.35;107312;1249;74168;-78
2022/01/07 10:45:58;;;;;;;8.20;4.70;;;;;;;2.46;57.22;101820.92;107402;1249;60271;-78
2022/01/07 10:48:56;;;;;;;;;;;;;;;2.66;52.79;101826.02;107339;1249;60571;-78
2022/01/07 10:51:25;;;;;;;7.70;3.90;;;;;;;2.52;51.95;101829.05;107410;1250;74171;-75
2022/01/07 10:54:04;;;;;;;5.50;3.50;;;;;;;2.84;53.11;101826.81;107407;1249;72444;-74
2022/01/07 10:56:51;;;;;;;6.30;3.80;;;;;;;2.72;52.21;101826.73;107351;1249;70599;-78
2022/01/07 10:59:21;;;;;;;7.10;4.60;;;;;;;2.82;51.94;101823.77;107483;1249;72080;-76
2022/01/07 11:01:56;;;;;;;9.10;5.50;;;;;;;2.54;52.02;101819.90;107466;1249;59866;-76
2022/01/07 11:04:32;;;;;;;6.00;3.70;;;;;;;2.41;52.33;101817.08;107112;1251;60458;-78
2022/01/07 11:07:09;;;;;;;6.00;3.90;;;;;;;2.24;52.70;101819.83;107287;1250;72578;-78
2022/01/07 11:09:38;;;;;;;7.60;4.40;;;;;;;2.40;53.16;101820.55;107329;1249;73130;-78
2022/01/07 11:12:09;;;;;;;7.80;4.60;;;;;;;2.69;52.92;101818.71;107040;1250;67057;-76
2022/01/07 11:14:40;;;;;;;8.80;5.30;;;;;;;2.87;52.47;101820.04;106968;1250;72432;-72
2022/01/07 11:17:12;;;;;;;11.60;6.20;;;;;;;2.94;51.44;101823.67;107158;1250;60671;-74
2022/01/07 11:19:44;;;;;;;13.90;6.10;;;;;;;3.08;51.69;101824.17;107289;1249;60963;-71
2022/01/07 11:22:14;;;;;;;8.20;4.90;;;;;;;3.15;51.18;101827.11;107232;1250;74290;-74
2022/01/07 11:25:08;;;;;;;8.80;3.60;;;;;;;3.19;50.37;101820.83;107164;1249;73200;-78
2022/01/07 11:27:54;;;;;;;8.80;4.30;;;;;;;3.33;51.16;101809.81;107034;1251;70982;-79
2022/01/07 11:30:28;;;;;;;6.10;4.10;;;;;;;3.55;50.45;101820.80;107055;1250;74815;-73
2022/01/07 11:33:00;;;;;;;7.70;3.80;;;;;;;3.78;49.46;101812.12;107275;1250;60965;-76
2022/01/07 11:35:29;;;;;;;6.40;3.90;;;;;;;3.63;48.80;101812.02;107094;1249;61825;-76
2022/01/07 11:38:00;;;;;;;9.00;4.70;;;;;;;3.62;48.78;101806.85;107288;1250;73761;-75
2022/01/07 11:40:31;;;;;;;8.70;4.20;;;;;;;3.84;49.37;101801.43;107112;1249;73246;-78
2022/01/07 11:43:04;;;;;;;7.30;4.20;;;;;;;4.11;49.29;101802.92;107133;1250;69127;-75
2022/01/07 11:45:33;;;;;;;;;;;;;;;4.29;48.89;101799.48;107107;1251;72043;-74